Time;durP1;ratioP1;P1;durP2;ratioP2;P2;SDS_P1;SDS_P2;PMS_P1;PMS_P2;Temp;Humidity;BMP_temperature;BMP_pressure;BME280_temperature;BME280_humidity;BME280_pressure;Samples;Min_cycle;Max_cycle;Signal;HPM_P1;HPM_P2
2023/04/19 00:01:58;;;;;;;1.40;1.30;;;21.80;50.90;;;;;;6351953;28;20050;-52
2023/04/19 00:05:01;;;;;;;1.38;1.27;;;21.80;50.90;;;;;;6352284;28;20487;-53
2023/04/19 00:08:03;;;;;;;1.60;1.50;;;21.30;50.60;;;;;;6352499;28;20530;-53
2023/04/19 00:11:07;;;;;;;1.20;1.10;;;21.70;50.80;;;;;;6352871;28;20044;-53
2023/04/19 00:14:08;;;;;;;1.55;1.45;;;21.60;50.60;;;;;;6351643;28;20089;-51
2023/04/19 00:17:11;;;;;;;;;;;21.70;50.80;;;;;;6353472;28;20451;-54
2023/04/19 00:20:13;;;;;;;1.42;1.08;;;21.60;51.00;;;;;;6350057;28;19969;-53
2023/04/19 00:23:14;;;;;;;1.40;1.30;;;21.60;50.70;;;;;;6349918;28;20130;-53
2023/04/19 00:26:16;;;;;;;1.45;1.35;;;21.60;50.70;;;;;;6350323;28;20036;-52
2023/04/19 00:29:23;;;;;;;1.30;1.20;;;21.60;50.70;;;;;;6350625;28;20051;-51
2023/04/19 00:32:24;;;;;;;1.85;1.63;;;21.70;50.70;;;;;;6348822;28;20050;-54
2023/04/19 00:35:27;;;;;;;1.70;1.60;;;21.60;50.70;;;;;;6347171;28;20154;-53
2023/04/19 00:38:28;;;;;;;1.25;1.15;;;21.60;50.70;;;;;;6348688;28;20054;-54
2023/04/19 00:41:30;;;;;;;1.30;1.20;;;21.50;50.60;;;;;;6349363;28;20419;-52
2023/04/19 00:44:31;;;;;;;1.33;1.23;;;21.40;50.50;;;;;;6354246;28;20051;-54
2023/04/19 00:47:34;;;;;;;1.50;1.40;;;21.50;50.70;;;;;;6352894;28;20044;-52
2023/04/19 00:50:36;;;;;;;1.60;1.50;;;21.50;50.50;;;;;;6352787;28;20406;-53
2023/04/19 00:53:38;;;;;;;1.80;1.55;;;21.60;50.60;;;;;;6354377;28;20039;-53
2023/04/19 00:56:39;;;;;;;1.50;1.40;;;21.60;50.70;;;;;;6353462;28;20039;-53
2023/04/19 00:59:41;;;;;;;1.48;1.30;;;21.60;50.70;;;;;;6353683;28;20032;-54
2023/04/19 01:02:42;;;;;;;2.15;1.77;;;21.60;50.70;;;;;;6353374;28;20093;-53
2023/04/19 01:05:47;;;;;;;1.27;1.17;;;21.40;50.70;;;;;;6353569;28;20039;-52
2023/04/19 01:08:49;;;;;;;1.52;1.42;;;21.40;50.60;;;;;;6352678;28;20047;-53
2023/04/19 01:11:50;;;;;;;1.38;1.27;;;21.60;68.70;;;;;;6353555;28;20396;-54
2023/04/19 01:14:51;;;;;;;;;;;21.30;50.60;;;;;;6354637;28;20048;-53
2023/04/19 01:17:54;;;;;;;1.58;1.45;;;21.40;51.00;;;;;;6353869;28;20303;-52
2023/04/19 01:20:58;;;;;;;1.77;1.50;;;21.60;50.80;;;;;;6354707;28;20092;-52
2023/04/19 01:24:00;;;;;;;1.90;1.80;;;21.40;50.70;;;;;;6354298;28;20061;-54
2023/04/19 01:27:02;;;;;;;1.58;1.48;;;21.20;50.60;;;;;;6353651;28;20044;-54
2023/04/19 01:30:06;;;;;;;1.60;1.50;;;21.50;50.80;;;;;;6354229;28;20040;-54
2023/04/19 01:33:08;;;;;;;1.85;1.58;;;21.70;50.20;;;;;;6353408;28;20035;-54
2023/04/19 01:36:10;;;;;;;1.88;1.52;;;21.10;50.60;;;;;;6352889;28;20406;-53
2023/04/19 01:39:12;;;;;;;1.63;1.50;;;21.60;50.90;;;;;;6353510;28;20100;-53
2023/04/19 01:42:14;;;;;;;1.77;1.48;;;21.20;50.70;;;;;;6353745;28;20058;-51
2023/04/19 01:45:16;;;;;;;2.00;1.60;;;21.30;50.40;;;;;;6353552;28;20039;-51
2023/04/19 01:48:17;;;;;;;1.95;1.70;;;21.50;50.70;;;;;;6354032;28;20406;-54
2023/04/19 01:51:20;;;;;;;1.60;1.50;;;21.00;50.50;;;;;;6353152;28;20054;-52
2023/04/19 01:54:22;;;;;;;1.50;1.40;;;21.40;50.70;;;;;;6353424;28;20047;-49
2023/04/19 01:57:24;;;;;;;1.80;1.70;;;21.30;50.70;;;;;;6353558;28;20100;-54
2023/04/19 02:00:25;;;;;;;;;;;21.20;50.60;;;;;;6354067;28;20402;-51
2023/04/19 02:03:27;;;;;;;1.73;1.50;;;21.60;51.20;;;;;;6353797;28;19923;-55
2023/04/19 02:06:29;;;;;;;1.60;1.48;;;21.30;50.70;;;;;;6352757;28;20040;-52
2023/04/19 02:09:34;;;;;;;;;;;21.40;50.70;;;;;;6353718;28;20495;-54
2023/04/19 02:12:39;;;;;;;1.55;1.30;;;21.70;51.20;;;;;;6353197;28;19965;-54
2023/04/19 02:15:43;;;;;;;1.80;1.70;;;21.50;50.70;;;;;;6353024;28;20040;-54
2023/04/19 02:18:45;;;;;;;1.60;1.50;;;21.40;50.60;;;;;;6352538;28;20426;-54
2023/04/19 02:21:47;;;;;;;1.60;1.50;;;21.10;50.50;;;;;;6353579;28;20069;-54
2023/04/19 02:24:50;;;;;;;1.73;1.63;;;21.30;50.60;;;;;;6353168;28;20039;-54
2023/04/19 02:27:52;;;;;;;1.70;1.60;;;21.70;50.90;;;;;;6351803;28;20036;-53
2023/04/19 02:30:55;;;;;;;1.65;1.50;;;21.20;50.60;;;;;;6352989;28;20044;-53
2023/04/19 02:33:57;;;;;;;1.48;1.38;;;21.40;50.80;;;;;;6352269;28;20048;-54
2023/04/19 02:36:58;;;;;;;;;;;21.40;50.70;;;;;;6353223;28;20039;-52
2023/04/19 02:40:04;;;;;;;1.50;1.40;;;21.40;51.60;;;;;;6352280;28;20319;-54
2023/04/19 02:43:05;;;;;;;1.90;1.80;;;21.00;50.40;;;;;;6352509;28;20040;-53
2023/04/19 02:46:07;;;;;;;;;;;21.40;50.60;;;;;;6351725;28;20043;-54
2023/04/19 02:49:08;;;;;;;1.58;1.40;;;21.40;51.00;;;;;;6351973;28;19920;-53
2023/04/19 02:52:10;;;;;;;1.70;1.60;;;21.00;50.40;;;;;;6352761;28;20044;-54
2023/04/19 02:55:15;;;;;;;2.17;1.98;;;21.10;50.50;;;;;;6352148;28;20083;-52
2023/04/19 02:58:18;;;;;;;1.77;1.67;;;21.50;50.70;;;;;;6353069;28;20039;-52
2023/04/19 03:01:32;;;;;;;1.88;1.60;;;21.00;50.50;;;;;;6352878;28;20042;-54
2023/04/19 03:04:37;;;;;;;1.48;1.38;;;21.30;50.60;;;;;;6351411;28;20092;-51
2023/04/19 03:07:40;;;;;;;1.65;1.50;;;21.50;50.70;;;;;;6350958;28;20525;-53
2023/04/19 03:10:45;;;;;;;2.03;1.70;;;21.10;50.40;;;;;;6351528;28;20051;-53
2023/04/19 03:13:47;;;;;;;1.73;1.50;;;21.40;50.60;;;;;;6350848;28;20044;-52
2023/04/19 03:16:49;;;;;;;1.75;1.60;;;21.30;50.40;;;;;;6351131;28;20051;-53
2023/04/19 03:19:51;;;;;;;;;;;21.10;50.50;;;;;;6350761;28;20074;-52
2023/04/19 03:22:52;;;;;;;1.50;1.38;;;21.30;50.90;;;;;;6350974;28;19919;-54
2023/04/19 03:25:55;;;;;;;1.60;1.50;;;21.00;50.50;;;;;;6350737;28;20054;-53
2023/04/19 03:29:05;;;;;;;1.67;1.58;;;21.40;50.60;;;;;;6350886;28;20123;-54
2023/04/19 03:32:17;;;;;;;1.50;1.38;;;21.10;50.50;;;;;;6351164;28;20478;-55
2023/04/19 03:35:19;;;;;;;;;;;21.10;50.40;;;;;;6350870;28;20398;-53
2023/04/19 03:38:21;;;;;;;1.55;1.33;;;21.10;50.80;;;;;;6350771;28;19972;-54
2023/04/19 03:41:25;;;;;;;1.58;1.48;;;21.00;50.40;;;;;;6350784;28;20039;-51
2023/04/19 03:44:46;;;;;;;1.88;1.67;;;21.10;50.30;;;;;;6349590;28;20519;-54
2023/04/19 03:47:49;;;;;;;1.50;1.27;;;20.80;50.30;;;;;;6350447;28;20411;-52
2023/04/19 03:50:51;;;;;;;1.70;1.60;;;21.30;50.60;;;;;;6351020;28;20047;-53
2023/04/19 03:53:54;;;;;;;1.73;1.63;;;21.20;50.50;;;;;;6350614;28;20061;-51
2023/04/19 03:56:57;;;;;;;1.83;1.50;;;21.30;50.70;;;;;;6349901;28;20040;-52
2023/04/19 04:00:00;;;;;;;1.60;1.50;;;21.20;50.60;;;;;;6351209;28;20055;-53
2023/04/19 04:03:05;;;;;;;1.70;1.60;;;21.30;50.60;;;;;;6351175;28;20462;-53
2023/04/19 04:06:07;;;;;;;1.88;1.50;;;21.10;50.40;;;;;;6350498;28;20559;-53
2023/04/19 04:09:09;;;;;;;1.77;1.58;;;20.90;50.50;;;;;;6350553;28;20058;-53
2023/04/19 04:12:12;;;;;;;;;;;21.20;50.60;;;;;;6350584;28;20052;-54
2023/04/19 04:15:15;;;;;;;1.75;1.60;;;20.70;50.40;;;;;;6351009;28;19988;-53
2023/04/19 04:18:22;;;;;;;1.67;1.58;;;21.30;50.60;;;;;;6354300;28;20169;-53
2023/04/19 04:21:25;;;;;;;1.45;1.35;;;20.70;50.40;;;;;;6354576;28;20403;-54
2023/04/19 04:24:27;;;;;;;1.80;1.70;;;21.20;50.60;;;;;;6353813;28;20044;-54
2023/04/19 04:27:39;;;;;;;1.83;1.70;;;21.20;50.50;;;;;;6353527;28;20054;-54
2023/04/19 04:30:46;;;;;;;1.75;1.63;;;20.80;50.40;;;;;;6353486;28;20117;-52
2023/04/19 04:33:48;;;;;;;2.05;1.85;;;20.90;50.40;;;;;;6353629;28;20067;-54
2023/04/19 04:36:54;;;;;;;1.90;1.50;;;20.90;50.50;;;;;;6353026;28;20043;-54
2023/04/19 04:39:57;;;;;;;1.90;1.70;;;21.30;50.70;;;;;;6353583;28;20093;-53
2023/04/19 04:43:03;;;;;;;1.70;1.52;;;20.80;50.50;;;;;;6352904;28;20039;-54
2023/04/19 04:46:08;;;;;;;1.92;1.83;;;20.70;50.40;;;;;;6352623;28;20047;-55
2023/04/19 04:49:14;;;;;;;1.95;1.60;;;21.30;50.60;;;;;;6352326;28;20050;-54
2023/04/19 04:52:17;;;;;;;1.98;1.85;;;20.70;50.50;;;;;;6352548;28;20044;-53
2023/04/19 04:55:29;;;;;;;1.40;1.30;;;20.80;50.40;;;;;;6352783;28;20105;-52
2023/04/19 04:58:31;;;;;;;1.90;1.70;;;21.20;50.70;;;;;;6352219;28;20067;-52
2023/04/19 05:01:40;;;;;;;2.25;1.65;;;21.20;50.60;;;;;;6352559;28;20487;-54
2023/04/19 05:04:42;;;;;;;1.65;1.50;;;21.00;48.30;;;;;;6352778;28;20116;-54
2023/04/19 05:07:44;;;;;;;1.65;1.55;;;21.10;50.40;;;;;;6354207;28;20131;-54
2023/04/19 05:10:46;;;;;;;1.70;1.52;;;20.80;50.60;;;;;;6352977;28;20050;-54
2023/04/19 05:13:49;;;;;;;1.40;1.30;;;21.00;50.60;;;;;;6352087;28;20036;-54
2023/04/19 05:16:52;;;;;;;1.98;1.65;;;20.80;50.50;;;;;;6352691;28;20066;-50
2023/04/19 05:19:54;;;;;;;1.55;1.42;;;21.30;50.10;;;;;;6352471;28;20511;-54
2023/04/19 05:22:57;;;;;;;1.70;1.60;;;20.90;50.50;;;;;;6352247;28;20051;-54
2023/04/19 05:25:59;;;;;;;1.70;1.60;;;20.90;50.30;;;;;;6351122;28;20071;-53
2023/04/19 05:29:03;;;;;;;2.13;1.55;;;21.30;50.70;;;;;;6351559;28;20054;-54
2023/04/19 05:32:14;;;;;;;1.38;1.27;;;21.10;50.60;;;;;;6352195;28;20668;-53
2023/04/19 05:35:21;;;;;;;1.75;1.55;;;20.90;50.50;;;;;;6352250;28;20047;-54
2023/04/19 05:38:23;;;;;;;1.50;1.40;;;21.20;50.50;;;;;;6352040;28;20040;-54
2023/04/19 05:41:25;;;;;;;1.52;1.42;;;21.10;50.50;;;;;;6351537;28;20082;-54
2023/04/19 05:44:27;;;;;;;1.85;1.58;;;21.10;50.50;;;;;;6352200;28;20070;-53
2023/04/19 05:47:28;;;;;;;1.25;1.10;;;21.20;50.50;;;;;;6352137;28;20042;-54
2023/04/19 05:50:45;;;;;;;1.60;1.50;;;21.20;50.40;;;;;;6351506;28;20181;-51
2023/04/19 05:54:05;;;;;;;1.50;1.30;;;21.10;50.50;;;;;;6351699;28;20126;-52
2023/04/19 05:57:06;;;;;;;1.60;1.42;;;21.10;50.50;;;;;;6350783;28;20043;-54
2023/04/19 06:00:10;;;;;;;1.60;1.50;;;20.90;50.30;;;;;;6350753;28;20069;-54
2023/04/19 06:03:14;;;;;;;1.60;1.50;;;21.10;50.40;;;;;;6350507;28;20519;-52
2023/04/19 06:06:17;;;;;;;1.70;1.52;;;21.20;50.70;;;;;;6350368;28;20095;-54
2023/04/19 06:09:19;;;;;;;1.75;1.65;;;20.90;50.50;;;;;;6350570;28;20043;-54
2023/04/19 06:12:20;;;;;;;;;;;21.10;50.60;;;;;;6350928;28;20079;-53
2023/04/19 06:15:24;;;;;;;2.95;1.50;;;21.20;51.00;;;;;;6350891;28;19919;-53
2023/04/19 06:18:26;;;;;;;1.65;1.45;;;21.20;50.70;;;;;;6351667;28;20031;-54
2023/04/19 06:21:30;;;;;;;1.77;1.48;;;19.90;50.00;;;;;;6349024;28;20043;-55
2023/04/19 06:24:31;;;;;;;2.85;1.25;;;20.90;50.70;;;;;;6348803;28;20093;-52
2023/04/19 06:27:35;;;;;;;1.50;1.40;;;21.10;50.90;;;;;;6348504;28;20092;-55
2023/04/19 06:30:38;;;;;;;1.50;1.40;;;21.20;51.30;;;;;;6348950;28;20066;-54
2023/04/19 06:33:40;;;;;;;1.67;1.58;;;21.20;50.90;;;;;;6348479;28;20620;-53
2023/04/19 06:36:46;;;;;;;1.60;1.50;;;21.30;51.40;;;;;;6348238;28;20073;-52
2023/04/19 06:39:48;;;;;;;;;;;21.40;51.50;;;;;;6348501;28;20522;-53
2023/04/19 06:42:49;;;;;;;1.38;1.23;;;21.80;52.00;;;;;;6348034;28;19981;-54
2023/04/19 06:45:57;;;;;;;;;;;21.30;51.20;;;;;;6348805;28;20040;-53
2023/04/19 06:49:00;;;;;;;1.85;1.60;;;21.80;51.90;;;;;;6347975;28;20025;-54
2023/04/19 06:52:01;;;;;;;;;;;21.40;51.20;;;;;;6348739;28;20031;-52
2023/04/19 06:55:03;;;;;;;2.95;1.55;;;22.10;52.10;;;;;;6347630;28;20359;-51
2023/04/19 06:58:09;;;;;;;2.67;1.50;;;21.30;51.00;;;;;;6347804;28;20039;-51
2023/04/19 07:01:11;;;;;;;2.00;1.70;;;21.50;51.70;;;;;;6347695;28;20452;-49
2023/04/19 07:04:13;;;;;;;2.03;1.70;;;21.40;51.60;;;;;;6349078;28;20050;-55
2023/04/19 07:07:16;;;;;;;1.50;1.33;;;21.50;51.90;;;;;;6348708;28;20080;-55
2023/04/19 07:10:18;;;;;;;2.33;1.55;;;21.30;51.60;;;;;;6351765;28;20065;-53
2023/04/19 07:13:20;;;;;;;3.28;1.50;;;21.50;52.00;;;;;;6349065;28;20040;-55
2023/04/19 07:16:22;;;;;;;;;;;21.60;51.90;;;;;;6348499;28;20069;-52
2023/04/19 07:19:27;;;;;;;3.15;1.80;;;21.70;52.20;;;;;;6347472;28;19919;-49
2023/04/19 07:22:29;;;;;;;2.65;1.70;;;21.70;50.80;;;;;;6348144;28;20039;-51
2023/04/19 07:25:31;;;;;;;1.83;1.60;;;21.80;51.60;;;;;;6347314;28;20036;-52
2023/04/19 07:28:33;;;;;;;1.75;1.40;;;21.60;51.10;;;;;;6347541;28;20122;-50
2023/04/19 07:31:35;;;;;;;;;;;21.80;51.30;;;;;;6347930;28;20059;-50
2023/04/19 07:34:37;;;;;;;2.88;1.65;;;21.50;74.30;;;;;;6347325;28;19922;-56
2023/04/19 07:37:38;;;;;;;2.15;1.30;;;21.80;54.20;;;;;;6349043;28;20368;-55
2023/04/19 07:40:40;;;;;;;;;;;22.00;54.40;;;;;;6352054;28;20036;-51
2023/04/19 07:43:41;;;;;;;1.73;1.40;;;22.00;52.70;;;;;;6349612;28;20294;-50
2023/04/19 07:46:43;;;;;;;;;;;22.00;52.20;;;;;;6348102;28;20043;-54
2023/04/19 07:49:51;;;;;;;1.67;1.58;;;22.00;52.70;;;;;;6346281;28;19919;-55
2023/04/19 07:52:52;;;;;;;1.45;1.30;;;22.10;52.10;;;;;;6349786;28;20036;-55
2023/04/19 07:55:54;;;;;;;1.73;1.55;;;21.90;52.40;;;;;;6347874;28;20408;-52
2023/04/19 07:58:55;;;;;;;2.17;1.75;;;22.10;52.40;;;;;;6346969;28;20059;-54
2023/04/19 08:02:10;;;;;;;2.10;1.90;;;22.10;52.50;;;;;;6347213;28;20134;-51
2023/04/19 08:05:12;;;;;;;1.60;1.40;;;22.10;52.20;;;;;;6346370;28;20039;-52
2023/04/19 08:08:14;;;;;;;2.08;1.88;;;21.90;52.30;;;;;;6346904;28;20079;-50
2023/04/19 08:11:15;;;;;;;;;;;22.00;52.30;;;;;;6347126;28;20055;-50
2023/04/19 08:14:17;;;;;;;1.70;1.60;;;22.60;53.10;;;;;;6346382;28;19920;-50
2023/04/19 08:17:37;;;;;;;1.50;1.35;;;22.10;52.30;;;;;;6345915;28;20514;-51
2023/04/19 08:20:45;;;;;;;1.50;1.40;;;21.80;52.40;;;;;;6346431;28;20052;-53
2023/04/19 08:23:47;;;;;;;1.77;1.48;;;22.00;52.20;;;;;;6345975;28;20055;-52
2023/04/19 08:26:52;;;;;;;1.50;1.40;;;22.10;52.40;;;;;;6345944;28;20112;-55
2023/04/19 08:29:54;;;;;;;1.55;1.40;;;22.10;52.30;;;;;;6346994;28;20070;-53
2023/04/19 08:32:56;;;;;;;1.98;1.73;;;22.30;52.20;;;;;;6346167;28;20141;-54
2023/04/19 08:35:58;;;;;;;1.70;1.50;;;22.10;52.30;;;;;;6345767;28;20541;-50
2023/04/19 08:39:00;;;;;;;1.52;1.42;;;21.80;52.30;;;;;;6346822;28;20459;-53
2023/04/19 08:42:09;;;;;;;2.05;1.67;;;21.70;52.10;;;;;;6346068;28;20127;-52
2023/04/19 08:45:32;;;;;;;1.70;1.60;;;22.20;52.50;;;;;;6331014;28;20034;-54
2023/04/19 08:48:35;;;;;;;3.60;2.10;;;21.90;52.10;;;;;;6346510;28;20040;-49
2023/04/19 08:51:39;;;;;;;7.78;1.80;;;22.30;51.90;;;;;;6345727;28;20046;-51
2023/04/19 08:54:41;;;;;;;1.60;1.50;;;22.00;51.70;;;;;;6345783;28;20109;-51
2023/04/19 08:57:46;;;;;;;1.75;1.63;;;21.90;51.70;;;;;;6345885;28;20093;-52
2023/04/19 09:00:47;;;;;;;1.50;1.40;;;22.00;48.60;;;;;;6345457;28;20113;-52
2023/04/19 09:03:49;;;;;;;3.03;1.70;;;22.10;51.80;;;;;;6350014;28;20479;-53
2023/04/19 09:07:08;;;;;;;1.65;1.20;;;22.30;51.60;;;;;;6350739;28;20046;-55
2023/04/19 09:10:11;;;;;;;1.60;1.30;;;22.30;52.00;;;;;;6349454;28;20075;-55
2023/04/19 09:13:12;;;;;;;2.22;1.52;;;22.00;51.40;;;;;;6349887;28;20043;-54
2023/04/19 09:16:25;;;;;;;;;;;22.30;51.80;;;;;;6350374;28;20050;-55
2023/04/19 09:19:45;;;;;;;1.90;1.73;;;22.40;51.90;;;;;;6350483;28;19920;-52
2023/04/19 09:23:03;;;;;;;1.98;1.60;;;22.00;51.40;;;;;;6349069;28;20044;-53
2023/04/19 09:26:05;;;;;;;2.65;1.77;;;22.00;51.40;;;;;;6348086;28;20035;-51
2023/04/19 09:29:26;;;;;;;1.60;1.40;;;22.10;51.60;;;;;;6349861;28;20046;-55
2023/04/19 09:32:28;;;;;;;1.38;1.27;;;22.20;51.30;;;;;;6349518;28;20074;-54
2023/04/19 09:35:40;;;;;;;1.77;1.63;;;22.30;51.70;;;;;;6348373;28;20108;-54
2023/04/19 09:38:46;;;;;;;1.55;1.40;;;22.40;51.70;;;;;;6349705;28;20051;-52
2023/04/19 09:41:51;;;;;;;1.77;1.50;;;22.10;51.40;;;;;;6349381;28;20044;-53
2023/04/19 09:44:56;;;;;;;1.80;1.65;;;22.40;51.40;;;;;;6349612;28;20383;-54
2023/04/19 09:48:18;;;;;;;1.88;1.52;;;22.10;51.60;;;;;;6347598;28;20042;-54
2023/04/19 09:51:20;;;;;;;;;;;22.20;51.70;;;;;;6349647;28;20501;-54
2023/04/19 09:54:23;;;;;;;1.70;1.60;;;22.80;52.40;;;;;;6349427;28;19927;-53
2023/04/19 09:57:26;;;;;;;1.65;1.48;;;22.80;52.00;;;;;;6348079;28;20035;-53
2023/04/19 10:00:27;;;;;;;;;;;22.50;52.00;;;;;;6349302;28;20047;-53
2023/04/19 10:03:37;;;;;;;1.35;1.25;;;22.30;52.00;;;;;;6348581;28;19923;-54
2023/04/19 10:06:40;;;;;;;1.92;1.55;;;22.40;52.50;;;;;;6348708;28;20071;-53
2023/04/19 10:09:50;;;;;;;2.08;1.50;;;22.20;51.60;;;;;;6347640;28;20043;-55
2023/04/19 10:13:00;;;;;;;1.55;1.45;;;22.40;51.90;;;;;;6348074;28;20047;-54
2023/04/19 10:16:21;;;;;;;1.60;1.50;;;22.20;51.70;;;;;;6347765;28;20066;-54
2023/04/19 10:19:24;;;;;;;2.78;1.60;;;22.20;52.00;;;;;;6348807;28;20047;-52
2023/04/19 10:22:27;;;;;;;1.48;1.38;;;22.60;51.80;;;;;;6348113;28;20043;-53
2023/04/19 10:25:30;;;;;;;2.30;1.58;;;22.50;52.10;;;;;;6348738;28;20039;-51
2023/04/19 10:28:34;;;;;;;2.03;1.27;;;22.10;52.40;;;;;;6347064;28;20036;-53
2023/04/19 10:31:36;;;;;;;1.80;1.67;;;22.60;52.10;;;;;;6348349;28;20074;-53
2023/04/19 10:34:39;;;;;;;2.35;1.35;;;22.10;51.90;;;;;;6348234;28;20054;-53
2023/04/19 10:37:41;;;;;;;1.38;1.27;;;22.60;52.10;;;;;;6346879;28;20040;-53
2023/04/19 10:40:59;;;;;;;1.80;1.65;;;22.60;52.10;;;;;;6348498;28;20067;-51
2023/04/19 10:44:11;;;;;;;1.35;1.25;;;22.40;52.00;;;;;;6347995;28;20475;-51
2023/04/19 10:47:13;;;;;;;1.25;1.15;;;22.20;52.00;;;;;;6347888;28;20062;-53
2023/04/19 10:50:16;;;;;;;1.30;1.20;;;22.60;52.20;;;;;;6348404;28;20058;-50
2023/04/19 10:53:45;;;;;;;1.20;1.02;;;22.70;52.00;;;;;;6347744;28;20100;-53
2023/04/19 10:57:05;;;;;;;1.38;1.23;;;22.60;51.90;;;;;;6348375;28;20036;-49
2023/04/19 11:00:25;;;;;;;1.35;1.25;;;22.70;51.90;;;;;;6346602;28;20526;-50
2023/04/19 11:03:55;;;;;;;1.20;1.10;;;22.80;51.90;;;;;;6346551;28;20043;-52
2023/04/19 11:07:00;;;;;;;1.48;1.33;;;22.80;51.90;;;;;;6347432;28;20118;-50
2023/04/19 11:10:02;;;;;;;1.30;1.20;;;22.80;51.80;;;;;;6347822;28;20088;-53
2023/04/19 11:13:05;;;;;;;1.38;1.27;;;22.80;51.80;;;;;;6347738;28;20089;-52
2023/04/19 11:16:07;;;;;;;1.55;1.25;;;22.90;52.00;;;;;;6347674;28;20027;-52
2023/04/19 11:19:09;;;;;;;1.60;1.30;;;22.50;51.70;;;;;;6347827;28;20487;-50
2023/04/19 11:22:10;;;;;;;1.40;1.30;;;22.40;51.90;;;;;;6347825;28;20047;-54
2023/04/19 11:25:15;;;;;;;3.05;2.30;;;22.80;51.70;;;;;;6347430;28;20479;-51
2023/04/19 11:28:17;;;;;;;2.10;1.90;;;22.90;51.90;;;;;;6347148;28;20043;-52
2023/04/19 11:31:20;;;;;;;1.40;1.30;;;22.70;51.60;;;;;;6347088;28;20040;-52
2023/04/19 11:34:25;;;;;;;1.30;1.20;;;22.80;52.00;;;;;;6347191;28;20039;-50
2023/04/19 11:37:32;;;;;;;2.30;1.20;;;23.10;51.70;;;;;;6347193;28;20043;-51
2023/04/19 11:40:36;;;;;;;1.40;1.30;;;22.70;52.00;;;;;;6345588;28;20135;-53
2023/04/19 11:43:39;;;;;;;1.90;1.27;;;23.00;52.10;;;;;;6347690;28;20036;-53
2023/04/19 11:46:41;;;;;;;3.72;1.42;;;22.90;53.30;;;;;;6346944;28;20056;-54
2023/04/19 11:49:43;;;;;;;1.20;1.10;;;22.90;53.20;;;;;;6346767;28;20116;-54
2023/04/19 11:52:48;;;;;;;1.50;1.40;;;22.50;53.00;;;;;;6347381;28;20044;-54
2023/04/19 11:55:51;;;;;;;3.53;2.05;;;23.00;53.00;;;;;;6347517;28;20059;-57
2023/04/19 11:58:59;;;;;;;3.75;3.38;;;22.60;52.90;;;;;;6345781;28;20040;-55
2023/04/19 12:02:06;;;;;;;2.90;2.22;;;22.90;52.90;;;;;;6345543;28;20051;-54
2023/04/19 12:05:09;;;;;;;2.33;1.77;;;22.90;53.10;;;;;;6346687;28;20048;-55
2023/04/19 12:08:13;;;;;;;1.50;1.40;;;23.10;53.60;;;;;;6347136;28;20050;-56
2023/04/19 12:11:17;;;;;;;1.95;1.13;;;22.90;53.70;;;;;;6347216;28;20048;-56
2023/04/19 12:14:22;;;;;;;1.40;1.30;;;23.10;53.40;;;;;;6345147;28;20088;-55
2023/04/19 12:17:23;;;;;;;4.38;1.20;;;22.90;53.40;;;;;;6346656;28;20087;-55
2023/04/19 12:20:31;;;;;;;1.27;1.17;;;23.10;53.50;;;;;;6347034;28;20474;-54
2023/04/19 12:23:35;;;;;;;1.00;0.90;;;22.80;53.40;;;;;;6346608;28;20036;-53
2023/04/19 12:26:52;;;;;;;1.27;1.17;;;23.30;49.80;;;;;;6345960;28;20043;-56
2023/04/19 12:29:57;;;;;;;2.40;1.13;;;23.20;52.80;;;;;;6345609;28;20494;-54
2023/04/19 12:33:02;;;;;;;0.95;0.90;;;23.40;52.60;;;;;;6346544;28;20040;-56
2023/04/19 12:36:03;;;;;;;1.23;1.02;;;23.30;52.60;;;;;;6346449;28;20036;-53
2023/04/19 12:39:09;;;;;;;1.40;1.17;;;23.30;52.40;;;;;;6350503;28;20089;-55
2023/04/19 12:42:13;;;;;;;1.30;1.10;;;23.50;53.00;;;;;;6350871;28;20057;-55
2023/04/19 12:45:16;;;;;;;1.33;1.20;;;23.50;52.20;;;;;;6350231;28;20082;-54
2023/04/19 12:48:18;;;;;;;1.30;1.10;;;23.50;52.10;;;;;;6349210;28;20040;-53
2023/04/19 12:51:19;;;;;;;1.10;1.00;;;23.60;51.90;;;;;;6350643;28;20551;-54
2023/04/19 12:54:21;;;;;;;1.05;0.95;;;23.30;51.90;;;;;;6350476;28;20087;-54
2023/04/19 12:57:23;;;;;;;1.10;1.00;;;23.60;51.60;;;;;;6350838;28;20433;-54
2023/04/19 13:00:26;;;;;;;1.20;1.02;;;23.70;51.80;;;;;;6350382;28;20059;-54
2023/04/19 13:03:31;;;;;;;1.52;1.20;;;23.70;51.10;;;;;;6349997;28;20486;-54
2023/04/19 13:06:36;;;;;;;0.82;0.80;;;23.70;51.50;;;;;;6350191;28;20040;-54
2023/04/19 13:09:38;;;;;;;1.08;0.98;;;24.70;51.20;;;;;;6351188;28;20089;-56
2023/04/19 13:12:40;;;;;;;1.25;0.80;;;23.60;51.20;;;;;;6352606;28;20054;-53
2023/04/19 13:15:42;;;;;;;1.95;1.00;;;23.30;51.00;;;;;;6349927;28;20449;-55
2023/04/19 13:18:44;;;;;;;1.58;1.00;;;23.70;51.00;;;;;;6350213;28;20040;-54
2023/04/19 13:21:45;;;;;;;1.20;1.00;;;23.60;50.20;;;;;;6349722;28;20051;-56
2023/04/19 13:24:48;;;;;;;1.38;1.13;;;23.80;50.70;;;;;;6349759;28;20065;-54
2023/04/19 13:27:50;;;;;;;1.20;1.10;;;23.90;50.60;;;;;;6349070;28;20058;-55
2023/04/19 13:30:52;;;;;;;1.27;0.90;;;24.00;50.60;;;;;;6349973;28;20123;-56
2023/04/19 13:33:54;;;;;;;2.13;0.93;;;23.60;50.00;;;;;;6350141;28;20110;-58
2023/04/19 13:36:57;;;;;;;1.00;0.80;;;24.10;50.30;;;;;;6350102;28;20044;-56
2023/04/19 13:39:58;;;;;;;1.25;0.90;;;24.20;50.00;;;;;;6349910;28;20499;-56
2023/04/19 13:43:19;;;;;;;1.67;1.00;;;24.10;50.10;;;;;;6350035;28;20046;-56
2023/04/19 13:46:22;;;;;;;1.40;1.10;;;24.00;49.60;;;;;;6349511;28;20556;-55
2023/04/19 13:49:23;;;;;;;1.90;0.93;;;23.70;49.30;;;;;;6348817;28;20036;-54
2023/04/19 13:52:25;;;;;;;1.20;0.90;;;24.20;49.90;;;;;;6349977;28;20039;-53
2023/04/19 13:55:28;;;;;;;1.13;1.00;;;24.20;43.50;;;;;;6373693;27;20028;-44
2023/04/19 13:58:30;;;;;;;1.30;0.80;;;24.10;43.00;;;;;;6381482;27;20045;-46
2023/04/19 14:01:32;;;;;;;1.20;1.00;;;24.20;42.80;;;;;;6380742;27;20097;-41
2023/04/19 14:04:36;;;;;;;0.90;0.80;;;24.30;42.70;;;;;;6379218;27;20495;-45
2023/04/19 14:07:41;;;;;;;1.20;1.02;;;24.30;42.50;;;;;;6377448;27;20026;-42
2023/04/19 14:10:42;;;;;;;1.20;1.10;;;24.30;42.40;;;;;;6374801;27;20073;-56
2023/04/19 14:13:47;;;;;;;1.00;0.90;;;24.10;42.50;;;;;;6378742;27;20043;-43
2023/04/19 14:16:50;;;;;;;1.08;0.98;;;24.30;42.50;;;;;;6374882;28;20027;-46
2023/04/19 14:19:51;;;;;;;1.05;0.80;;;24.30;42.40;;;;;;6376151;28;20027;-42
2023/04/19 14:22:57;;;;;;;1.02;0.95;;;24.20;42.20;;;;;;6376339;28;20067;-43
2023/04/19 14:25:59;;;;;;;1.02;0.90;;;24.30;42.10;;;;;;6379029;27;20038;-43
2023/04/19 14:29:02;;;;;;;0.82;0.82;;;24.40;42.00;;;;;;6377955;27;20023;-48
2023/04/19 14:32:04;;;;;;;0.90;0.70;;;24.50;41.90;;;;;;6377750;27;20087;-44
2023/04/19 14:35:28;;;;;;;1.63;0.70;;;24.50;41.70;;;;;;6365708;28;20221;-44
2023/04/19 14:38:29;;;;;;;0.90;0.73;;;24.60;41.70;;;;;;6373068;28;20039;-42
2023/04/19 14:41:31;;;;;;;0.95;0.70;;;24.50;41.40;;;;;;6376817;27;20054;-44
2023/04/19 14:44:32;;;;;;;1.63;1.00;;;24.40;41.30;;;;;;6379860;27;20037;-44
2023/04/19 14:47:34;;;;;;;0.70;0.70;;;24.20;41.20;;;;;;6379578;27;20020;-42
2023/04/19 14:50:37;;;;;;;0.95;0.80;;;24.50;41.20;;;;;;6380460;27;20100;-42
2023/04/19 14:53:38;;;;;;;0.90;0.77;;;24.50;41.00;;;;;;6380258;27;20031;-41
2023/04/19 14:56:39;;;;;;;0.68;0.68;;;24.50;41.00;;;;;;6379785;27;20045;-45
2023/04/19 14:59:41;;;;;;;0.80;0.65;;;24.40;40.90;;;;;;6379468;27;20020;-45
2023/04/19 15:02:43;;;;;;;0.90;0.70;;;24.50;41.10;;;;;;6378469;27;20050;-46
2023/04/19 15:05:45;;;;;;;0.70;0.70;;;24.60;41.10;;;;;;6378796;27;20064;-45
2023/04/19 15:08:46;;;;;;;1.90;0.73;;;24.50;41.20;;;;;;6378089;27;20035;-46
2023/04/19 15:11:48;;;;;;;1.00;0.70;;;24.50;55.30;;;;;;6378540;27;20079;-47
2023/04/19 15:14:52;;;;;;;0.93;0.80;;;24.40;40.90;;;;;;6378908;27;20019;-47
2023/04/19 16:53:51;;;;;;;0.50;0.50;;;24.50;40.40;;;;;;6240454;28;20069;-90
2023/04/19 16:56:55;;;;;;;0.57;0.50;;;22.80;41.20;;;;;;6249641;28;20046;-91
2023/04/19 16:59:57;;;;;;;0.40;0.40;;;22.50;40.80;;;;;;6251142;28;20048;-90
2023/04/19 17:03:01;;;;;;;0.60;0.60;;;23.00;42.30;;;;;;6245343;28;20074;-90
2023/04/19 18:51:36;;;;;;;0.93;0.63;;;25.00;44.60;;;;;;7412586;22;20274;-90
2023/04/19 19:09:06;;;;;;;0.55;0.55;;;22.50;39.10;;;;;;7306405;23;20972;-90
2023/04/19 19:57:47;;;;;;;0.90;0.73;;;24.30;40.90;;;;;;6507364;23;20050;-88
2023/04/19 20:01:10;;;;;;;0.80;0.65;;;23.90;42.80;;;;;;6181748;28;20070;-89
2023/04/19 20:25:07;;;;;;;0.68;0.60;;;24.10;41.20;;;;;;6460252;23;20054;-89
2023/04/19 20:28:09;;;;;;;0.65;0.60;;;23.90;41.60;;;;;;6202061;28;20043;-89
2023/04/19 20:31:11;;;;;;;0.70;0.60;;;;;;;;;;6199846;28;20093;-89
2023/04/19 20:34:16;;;;;;;0.82;0.80;;;24.00;40.60;;;;;;6198373;28;20057;-89
2023/04/19 20:37:22;;;;;;;0.80;0.73;;;;;;;;;;6180264;28;20047;-88
2023/04/19 20:40:25;;;;;;;0.77;0.70;;;24.00;40.80;;;;;;6159048;28;20178;-89
2023/04/19 20:43:29;;;;;;;0.70;0.70;;;24.30;42.60;;;;;;6154030;29;20043;-88
2023/04/19 21:08:22;;;;;;;0.90;0.75;;;23.80;41.80;;;;;;6220773;23;20272;-90
2023/04/19 21:11:29;;;;;;;0.70;0.70;;;23.70;42.60;;;;;;6204978;28;20070;-89